Time;durP1;ratioP1;P1;durP2;ratioP2;P2;SDS_P1;SDS_P2;PMS_P1;PMS_P2;Temp;Humidity;BMP_temperature;BMP_pressure;BME280_temperature;BME280_humidity;BME280_pressure;Samples;Min_cycle;Max_cycle;Signal;HPM_P1;HPM_P2
2022/11/07 00:02:13;;;;;;;12.65;8.05;;;11.00;99.90;;;;;;4868161;29;20394;-95
2022/11/07 00:04:39;;;;;;;11.93;7.90;;;11.00;99.90;;;;;;4880955;29;20053;-95
2022/11/07 00:07:06;;;;;;;11.45;8.10;;;11.00;99.90;;;;;;4845957;29;20053;-96
2022/11/07 00:09:32;;;;;;;10.85;7.47;;;11.00;99.90;;;;;;4875450;29;20052;-92
2022/11/07 00:11:58;;;;;;;11.90;7.43;;;11.00;99.90;;;;;;4856356;29;20037;-94
2022/11/07 00:14:24;;;;;;;12.52;7.45;;;11.10;99.90;;;;;;4834109;29;20045;-95
2022/11/07 00:16:49;;;;;;;11.68;7.88;;;11.10;99.90;;;;;;4850738;29;20045;-94
2022/11/07 00:19:18;;;;;;;11.00;7.68;;;11.10;99.90;;;;;;4868022;29;20117;-95
2022/11/07 00:21:43;;;;;;;11.68;7.30;;;11.20;99.90;;;;;;4851436;29;20088;-92
2022/11/07 00:24:10;;;;;;;11.40;7.45;;;11.20;99.90;;;;;;4849874;29;20053;-95
2022/11/07 00:26:36;;;;;;;10.85;7.68;;;11.20;99.90;;;;;;4835981;29;20048;-95
2022/11/07 00:29:03;;;;;;;12.18;7.85;;;11.20;99.90;;;;;;4862747;29;20037;-95
2022/11/07 00:31:28;;;;;;;12.35;7.78;;;11.20;99.90;;;;;;4868018;29;20056;-94
2022/11/07 00:33:55;;;;;;;11.45;7.13;;;11.20;99.90;;;;;;4848949;29;20037;-93
2022/11/07 00:36:26;;;;;;;11.85;7.32;;;11.20;99.90;;;;;;4871578;29;20046;-94
2022/11/07 00:38:52;;;;;;;10.55;7.40;;;11.20;99.90;;;;;;4861668;29;20041;-95
2022/11/07 00:41:18;;;;;;;12.57;7.40;;;11.20;99.90;;;;;;4879973;29;20477;-93
2022/11/07 00:43:44;;;;;;;13.95;7.00;;;11.20;99.90;;;;;;4853098;29;20052;-94
2022/11/07 00:46:12;;;;;;;16.20;7.95;;;11.30;99.90;;;;;;4863315;29;20084;-94
2022/11/07 00:48:41;;;;;;;12.65;7.40;;;11.30;99.90;;;;;;4865972;29;20077;-94
2022/11/07 00:51:16;;;;;;;11.75;7.10;;;11.30;99.90;;;;;;4848317;29;20088;-95
2022/11/07 00:53:42;;;;;;;13.52;6.90;;;11.40;99.90;;;;;;4843189;29;20566;-93
2022/11/07 00:56:10;;;;;;;12.68;7.32;;;11.30;99.90;;;;;;4866185;29;20048;-94
2022/11/07 00:58:36;;;;;;;11.93;7.45;;;11.30;99.90;;;;;;4840191;29;20077;-95
2022/11/07 01:01:14;;;;;;;10.32;7.43;;;11.30;99.90;;;;;;4870148;29;20046;-89
2022/11/07 01:06:30;;;;;;;12.52;7.53;;;11.20;99.90;;;;;;4881074;29;20125;-94
2022/11/07 01:08:55;;;;;;;15.75;7.88;;;11.20;99.90;;;;;;4850037;29;20390;-95
2022/11/07 01:11:22;;;;;;;11.13;7.00;;;11.20;99.90;;;;;;4847939;29;20138;-94
2022/11/07 01:13:48;;;;;;;11.82;6.68;;;11.20;99.90;;;;;;4862025;29;20041;-94
2022/11/07 01:16:13;;;;;;;11.07;6.22;;;11.20;99.90;;;;;;4848656;29;20048;-96
2022/11/07 01:18:39;;;;;;;14.18;7.00;;;11.30;99.90;;;;;;4855991;29;20045;-94
2022/11/07 01:21:06;;;;;;;11.85;7.13;;;11.30;99.90;;;;;;4871956;29;20394;-95
2022/11/07 01:23:33;;;;;;;11.85;6.90;;;11.30;99.90;;;;;;4874302;29;20627;-93
2022/11/07 01:26:04;;;;;;;13.77;7.40;;;11.30;99.90;;;;;;4875511;29;20138;-94
2022/11/07 01:28:31;;;;;;;13.20;7.20;;;11.30;99.90;;;;;;4877800;29;20029;-95
2022/11/07 01:30:56;;;;;;;14.27;7.43;;;11.30;99.90;;;;;;4874332;29;20071;-91
2022/11/07 01:33:22;;;;;;;12.52;7.05;;;11.30;99.90;;;;;;4879841;29;20044;-93
2022/11/07 01:35:48;;;;;;;11.82;6.90;;;11.30;99.90;;;;;;4871073;29;20055;-95
2022/11/07 01:38:13;;;;;;;13.02;6.88;;;11.30;99.90;;;;;;4887305;29;20116;-94
2022/11/07 01:41:19;;;;;;;10.48;6.85;;;11.30;99.90;;;;;;4853801;29;20037;-94
2022/11/07 01:43:45;;;;;;;11.27;6.40;;;11.40;99.90;;;;;;4874889;29;20048;-93
2022/11/07 01:46:11;;;;;;;13.68;7.50;;;11.40;99.90;;;;;;4875752;29;20041;-93
2022/11/07 01:48:38;;;;;;;13.02;6.45;;;11.40;99.90;;;;;;4869454;29;20049;-94
2022/11/07 01:51:04;;;;;;;12.98;6.90;;;11.50;99.90;;;;;;4864976;29;20056;-93
2022/11/07 01:53:30;;;;;;;12.57;6.82;;;11.50;99.90;;;;;;4870631;29;20084;-92
2022/11/07 01:55:56;;;;;;;13.73;7.20;;;11.50;99.90;;;;;;4872304;29;20089;-94
2022/11/07 01:58:21;;;;;;;15.00;7.07;;;11.50;99.90;;;;;;4853573;29;20045;-95
2022/11/07 02:00:47;;;;;;;11.98;6.40;;;11.50;99.90;;;;;;4881836;29;20514;-93
2022/11/07 02:03:19;;;;;;;13.15;6.53;;;11.50;99.90;;;;;;4878169;29;20048;-94
2022/11/07 02:06:00;;;;;;;11.93;6.15;;;11.50;99.90;;;;;;4878163;29;20049;-93
2022/11/07 02:08:28;;;;;;;11.60;6.63;;;11.50;99.90;;;;;;4877286;29;20041;-90
2022/11/07 02:10:56;;;;;;;15.73;6.35;;;11.60;99.90;;;;;;4876952;29;20038;-94
2022/11/07 02:13:27;;;;;;;14.00;6.53;;;11.60;99.90;;;;;;4854002;29;20548;-94
2022/11/07 02:15:52;;;;;;;12.30;6.00;;;11.60;99.90;;;;;;4863386;29;20048;-92
2022/11/07 02:18:19;;;;;;;12.40;5.70;;;11.60;99.90;;;;;;4864102;29;20509;-93
2022/11/07 02:20:45;;;;;;;12.13;5.90;;;11.60;99.90;;;;;;4881898;29;20048;-91
2022/11/07 02:23:27;;;;;;;11.75;6.20;;;11.60;99.90;;;;;;4863988;29;20052;-92
2022/11/07 02:25:54;;;;;;;14.77;6.22;;;11.60;99.90;;;;;;4836970;29;20131;-95
2022/11/07 02:28:22;;;;;;;10.77;5.78;;;11.60;99.90;;;;;;4865260;29;20415;-93
2022/11/07 02:30:48;;;;;;;10.73;5.45;;;11.60;99.90;;;;;;4865732;29;20148;-91
2022/11/07 02:33:19;;;;;;;13.52;5.90;;;11.60;99.90;;;;;;4865412;29;20538;-91
2022/11/07 02:35:47;;;;;;;11.00;5.55;;;11.60;99.90;;;;;;4869925;29;20037;-94
2022/11/07 02:38:19;;;;;;;12.18;6.00;;;11.60;99.90;;;;;;4872298;29;20051;-92
2022/11/07 02:40:46;;;;;;;;;;;11.70;99.90;;;;;;4861243;29;20176;-94
2022/11/07 02:43:14;;;;;;;10.93;6.15;;;11.60;99.90;;;;;;4855687;29;19924;-92
2022/11/07 02:45:44;;;;;;;11.13;5.70;;;11.60;99.90;;;;;;4859601;29;20169;-89
2022/11/07 02:48:10;;;;;;;12.43;6.80;;;11.70;99.90;;;;;;4856438;29;20049;-92
2022/11/07 02:50:35;;;;;;;10.13;5.97;;;11.70;99.90;;;;;;4844518;29;20086;-93
2022/11/07 02:53:01;;;;;;;12.32;6.57;;;11.70;99.90;;;;;;4873303;29;20046;-91
2022/11/07 02:55:27;;;;;;;12.95;6.20;;;11.70;99.90;;;;;;4878430;29;20124;-95
2022/11/07 02:57:52;;;;;;;13.68;7.10;;;11.70;99.90;;;;;;4865183;29;20076;-93
2022/11/07 03:00:18;;;;;;;13.93;6.97;;;11.70;99.90;;;;;;4863813;29;20041;-95
2022/11/07 03:02:45;;;;;;;13.85;7.10;;;11.70;99.90;;;;;;4868498;29;20041;-94
2022/11/07 03:05:13;;;;;;;14.40;7.32;;;11.70;99.90;;;;;;4881084;29;20097;-95
2022/11/07 03:07:41;;;;;;;14.18;6.80;;;11.60;99.90;;;;;;4884964;29;20085;-92
2022/11/07 03:10:08;;;;;;;15.25;6.93;;;11.60;99.90;;;;;;4847663;29;20310;-93
2022/11/07 03:12:34;;;;;;;14.30;7.68;;;11.60;99.90;;;;;;4859216;29;20076;-96
2022/11/07 03:14:59;;;;;;;12.90;6.88;;;11.60;99.90;;;;;;4863604;29;20041;-95
2022/11/07 03:17:25;;;;;;;13.57;6.30;;;11.60;99.90;;;;;;4850868;29;20041;-96
2022/11/07 03:19:51;;;;;;;14.48;7.25;;;11.60;99.90;;;;;;4855726;29;20041;-95
2022/11/07 03:22:16;;;;;;;14.50;6.72;;;11.50;99.90;;;;;;4862461;29;20037;-96
2022/11/07 03:24:42;;;;;;;14.55;6.47;;;11.60;99.90;;;;;;4881848;29;20116;-92
2022/11/07 03:27:07;;;;;;;14.30;7.00;;;11.50;99.90;;;;;;4861122;29;20064;-92
2022/11/07 03:29:33;;;;;;;13.50;7.00;;;11.50;99.90;;;;;;4884895;29;20045;-95
2022/11/07 03:31:59;;;;;;;13.18;6.63;;;11.40;99.90;;;;;;4871095;29;20037;-94
2022/11/07 03:34:24;;;;;;;13.82;7.13;;;11.40;99.90;;;;;;4869836;29;20048;-93
2022/11/07 03:36:50;;;;;;;12.90;7.00;;;11.40;99.90;;;;;;4883103;29;20045;-93
2022/11/07 03:39:16;;;;;;;13.23;6.50;;;11.40;99.90;;;;;;4861439;29;20045;-94
2022/11/07 03:41:44;;;;;;;13.57;6.72;;;11.40;99.90;;;;;;4876115;29;20049;-93
2022/11/07 03:44:10;;;;;;;12.07;6.50;;;11.40;99.90;;;;;;4867980;29;20041;-93
2022/11/07 03:46:35;;;;;;;13.00;6.88;;;11.40;99.90;;;;;;4878900;29;20044;-94
2022/11/07 03:49:01;;;;;;;15.18;6.63;;;11.40;99.90;;;;;;4879263;29;20048;-91
2022/11/07 03:51:27;;;;;;;13.57;6.20;;;11.40;99.90;;;;;;4879640;29;20072;-93
2022/11/07 03:53:52;;;;;;;13.45;7.13;;;11.40;99.90;;;;;;4878730;29;20078;-91
2022/11/07 03:56:18;;;;;;;13.98;6.30;;;11.50;99.90;;;;;;4883542;29;20037;-94
2022/11/07 03:58:43;;;;;;;12.23;6.20;;;11.40;99.90;;;;;;4871975;29;20041;-92
2022/11/07 04:01:10;;;;;;;15.82;6.85;;;11.40;99.90;;;;;;4886483;29;20028;-93
2022/11/07 04:03:36;;;;;;;15.98;6.22;;;11.50;99.90;;;;;;4863310;29;20049;-94
2022/11/07 04:06:02;;;;;;;13.75;6.47;;;11.50;99.90;;;;;;4830989;29;20049;-94
2022/11/07 04:08:28;;;;;;;12.57;6.15;;;11.60;99.90;;;;;;4864943;29;20048;-96
2022/11/07 04:10:53;;;;;;;12.48;6.35;;;11.50;99.90;;;;;;4842818;29;20082;-95
2022/11/07 04:18:47;;;;;;;13.48;5.90;;;11.60;99.90;;;;;;4874343;29;20057;-95
2022/11/07 04:21:13;;;;;;;12.73;6.20;;;11.60;99.90;;;;;;4847288;29;20055;-93
2022/11/07 04:23:38;;;;;;;15.10;6.45;;;11.70;99.90;;;;;;4860520;29;20047;-91
2022/11/07 04:28:48;;;;;;;14.30;5.75;;;11.70;99.90;;;;;;4873909;29;20045;-91
2022/11/07 04:31:14;;;;;;;12.75;5.95;;;11.60;99.90;;;;;;4861766;29;20047;-94
2022/11/07 04:33:39;;;;;;;15.85;6.63;;;11.60;99.90;;;;;;4841261;29;20047;-92
2022/11/07 04:36:05;;;;;;;12.43;6.65;;;11.60;99.90;;;;;;4856032;29;20049;-92
2022/11/07 04:38:31;;;;;;;14.23;6.43;;;11.60;99.90;;;;;;4848226;29;20124;-94
2022/11/07 04:40:57;;;;;;;14.75;6.60;;;11.60;99.90;;;;;;4847196;29;20068;-90
2022/11/07 04:43:24;;;;;;;15.50;6.20;;;11.60;99.90;;;;;;4849974;29;20037;-90
2022/11/07 04:45:50;;;;;;;14.23;6.72;;;11.60;99.90;;;;;;4875336;29;20041;-92
2022/11/07 04:48:16;;;;;;;14.30;6.63;;;11.50;99.90;;;;;;4860378;29;20394;-89
2022/11/07 04:50:43;;;;;;;13.98;6.22;;;11.50;99.90;;;;;;4857869;29;20033;-93
2022/11/07 04:53:16;;;;;;;11.98;5.70;;;11.50;99.90;;;;;;4846227;29;20045;-90
2022/11/07 04:55:43;;;;;;;13.90;6.72;;;11.50;99.90;;;;;;4862301;29;20065;-92
2022/11/07 04:58:09;;;;;;;12.90;6.22;;;11.50;99.90;;;;;;4861824;29;20029;-93
2022/11/07 05:00:35;;;;;;;11.60;6.30;;;11.50;99.90;;;;;;4849680;29;20093;-95
2022/11/07 05:03:00;;;;;;;13.73;6.18;;;11.50;99.90;;;;;;4847562;29;20046;-94
2022/11/07 05:05:26;;;;;;;11.82;6.22;;;11.50;99.90;;;;;;4851430;29;20557;-92
2022/11/07 05:07:52;;;;;;;12.68;6.60;;;11.50;99.90;;;;;;4862527;29;20388;-92
2022/11/07 05:10:25;;;;;;;13.35;6.93;;;11.40;99.90;;;;;;4859746;29;20049;-90
2022/11/07 05:12:51;;;;;;;13.85;6.38;;;11.40;99.90;;;;;;4845672;29;20482;-91
2022/11/07 05:15:17;;;;;;;14.73;6.93;;;11.30;99.90;;;;;;4856298;29;20045;-93
2022/11/07 05:17:43;;;;;;;11.88;7.00;;;11.20;99.90;;;;;;4875754;29;20591;-92
2022/11/07 05:20:35;;;;;;;13.07;7.03;;;11.30;99.90;;;;;;4833108;29;20041;-91
2022/11/07 05:23:11;;;;;;;13.80;6.85;;;11.30;99.90;;;;;;4856168;29;20140;-95
2022/11/07 05:25:37;;;;;;;14.60;7.38;;;11.30;99.90;;;;;;4856319;29;20056;-91
2022/11/07 05:28:03;;;;;;;13.20;7.03;;;11.30;99.90;;;;;;4859002;29;20045;-92
2022/11/07 05:30:28;;;;;;;13.80;7.45;;;11.40;99.90;;;;;;4846084;29;20048;-92
2022/11/07 05:32:54;;;;;;;15.55;7.75;;;11.40;99.90;;;;;;4862668;29;20048;-91
2022/11/07 05:35:19;;;;;;;14.07;7.40;;;11.40;99.90;;;;;;4847752;29;20080;-93
2022/11/07 05:37:48;;;;;;;15.35;7.78;;;11.40;99.90;;;;;;4853663;29;20043;-92
2022/11/07 05:40:14;;;;;;;12.80;7.03;;;11.40;99.90;;;;;;4854693;29;20046;-93
2022/11/07 05:42:39;;;;;;;12.73;7.13;;;11.40;99.90;;;;;;4863526;29;20045;-93
2022/11/07 05:45:06;;;;;;;12.48;6.82;;;11.30;99.90;;;;;;4867038;29;20048;-87
2022/11/07 05:47:31;;;;;;;16.17;7.32;;;11.40;99.90;;;;;;4877863;29;20514;-88
2022/11/07 05:49:57;;;;;;;14.57;6.78;;;11.40;99.90;;;;;;4861658;29;20049;-88
2022/11/07 05:52:22;;;;;;;14.43;7.55;;;11.50;99.90;;;;;;4859892;29;20068;-87
2022/11/07 05:54:48;;;;;;;13.65;6.50;;;11.40;99.90;;;;;;4878146;29;20056;-88
2022/11/07 05:57:14;;;;;;;11.50;6.32;;;11.40;99.90;;;;;;4881086;29;20037;-93
2022/11/07 05:59:39;;;;;;;15.45;6.97;;;11.40;99.90;;;;;;4862469;29;20042;-94
2022/11/07 06:02:05;;;;;;;13.75;6.72;;;11.40;99.90;;;;;;4848051;29;20086;-88
2022/11/07 06:04:30;;;;;;;13.55;6.72;;;11.40;99.90;;;;;;4853236;29;20041;-89
2022/11/07 06:06:56;;;;;;;13.68;6.85;;;11.40;99.90;;;;;;4859209;29;20498;-88
2022/11/07 06:09:21;;;;;;;15.52;7.13;;;11.40;99.90;;;;;;4859871;29;20072;-88
2022/11/07 06:11:47;;;;;;;13.00;6.57;;;11.40;99.90;;;;;;4860452;29;20074;-88
2022/11/07 06:14:12;;;;;;;13.70;6.72;;;11.40;99.90;;;;;;4845653;29;20470;-89
2022/11/07 06:16:38;;;;;;;13.45;7.28;;;11.40;99.90;;;;;;4870288;29;20122;-88
2022/11/07 06:19:04;;;;;;;13.55;7.40;;;11.40;99.90;;;;;;4855853;29;20394;-89
2022/11/07 06:21:29;;;;;;;13.85;7.10;;;11.30;99.90;;;;;;4844843;29;20128;-89
2022/11/07 06:23:56;;;;;;;14.68;7.63;;;11.50;99.90;;;;;;4858538;29;20136;-87
2022/11/07 06:26:22;;;;;;;14.68;7.95;;;11.40;99.90;;;;;;4856569;29;20044;-88
2022/11/07 06:28:48;;;;;;;17.67;8.48;;;11.40;99.90;;;;;;4874344;29;20041;-89
2022/11/07 06:31:13;;;;;;;16.05;8.32;;;11.40;99.90;;;;;;4856243;29;20393;-87
2022/11/07 06:33:39;;;;;;;14.63;8.88;;;11.40;99.90;;;;;;4857961;29;20052;-89
2022/11/07 06:36:07;;;;;;;15.23;8.85;;;11.40;99.90;;;;;;4858958;29;20041;-86
2022/11/07 06:38:33;;;;;;;16.33;8.55;;;11.40;99.90;;;;;;4858544;29;20458;-87
2022/11/07 06:41:18;;;;;;;16.13;8.82;;;11.40;99.90;;;;;;4860518;29;20123;-86
2022/11/07 06:43:44;;;;;;;15.68;9.20;;;11.30;99.90;;;;;;4842454;29;20443;-89
2022/11/07 06:46:12;;;;;;;17.48;9.15;;;11.40;99.90;;;;;;4867002;29;20091;-87
2022/11/07 06:48:38;;;;;;;18.35;10.40;;;11.30;99.90;;;;;;4842240;29;20049;-87
2022/11/07 06:51:05;;;;;;;19.08;9.88;;;11.40;99.90;;;;;;4840584;29;20041;-87
2022/11/07 06:53:31;;;;;;;16.33;10.02;;;11.40;99.90;;;;;;4859740;29;20045;-88
2022/11/07 06:56:02;;;;;;;16.05;9.68;;;11.40;99.90;;;;;;4857982;29;20096;-88
2022/11/07 06:58:28;;;;;;;16.43;9.30;;;11.40;99.90;;;;;;4859692;29;20415;-87
2022/11/07 07:00:57;;;;;;;14.30;10.10;;;11.40;99.90;;;;;;4876110;29;20334;-87
2022/11/07 07:03:23;;;;;;;17.70;9.80;;;11.50;99.90;;;;;;4859037;29;20112;-86
2022/11/07 07:05:48;;;;;;;16.40;9.32;;;11.40;99.90;;;;;;4874426;29;20061;-86
2022/11/07 07:08:14;;;;;;;15.98;9.27;;;11.50;99.90;;;;;;4841857;29;20468;-87
2022/11/07 07:10:42;;;;;;;16.05;8.73;;;11.50;99.90;;;;;;4857006;29;20044;-88
2022/11/07 07:13:08;;;;;;;15.27;8.20;;;11.50;99.90;;;;;;4875892;29;20033;-87
2022/11/07 07:15:34;;;;;;;19.45;8.73;;;11.60;99.90;;;;;;4844713;29;20044;-90
2022/11/07 07:18:00;;;;;;;16.17;8.85;;;11.60;99.90;;;;;;4875907;29;20403;-87
2022/11/07 07:20:27;;;;;;;17.60;8.32;;;11.60;99.90;;;;;;4857593;29;20052;-86
2022/11/07 07:22:52;;;;;;;17.73;8.70;;;11.60;99.90;;;;;;4860272;29;20455;-87
2022/11/07 07:25:18;;;;;;;16.88;8.15;;;11.60;99.90;;;;;;4879790;29;20037;-88
2022/11/07 07:27:44;;;;;;;15.07;7.72;;;11.70;99.90;;;;;;4857401;29;20486;-88
2022/11/07 07:30:10;;;;;;;16.60;7.65;;;11.70;99.90;;;;;;4846382;29;20045;-86
2022/11/07 07:32:35;;;;;;;15.90;8.48;;;11.70;99.90;;;;;;4865732;29;20025;-95
2022/11/07 07:35:01;;;;;;;16.13;8.02;;;11.70;99.90;;;;;;4871628;29;20109;-93
2022/11/07 07:37:27;;;;;;;16.98;7.72;;;11.80;99.90;;;;;;4869234;29;20049;-94
2022/11/07 07:39:53;;;;;;;17.23;7.13;;;11.80;99.90;;;;;;4873348;29;20497;-94
2022/11/07 07:42:18;;;;;;;16.17;7.55;;;11.90;99.90;;;;;;4854197;29;20516;-91
2022/11/07 07:44:44;;;;;;;14.75;7.50;;;11.90;99.90;;;;;;4856390;29;20033;-91
2022/11/07 07:47:09;;;;;;;13.63;7.25;;;11.90;99.90;;;;;;4882678;29;20112;-94
2022/11/07 07:49:35;;;;;;;16.58;7.10;;;11.90;99.90;;;;;;4890739;29;20092;-96
2022/11/07 07:52:01;;;;;;;13.60;7.07;;;11.90;99.90;;;;;;4873975;29;20065;-95
2022/11/07 08:25:33;;;;;;;17.02;6.30;;;12.30;99.90;;;;;;4913948;29;20044;-90
2022/11/07 08:27:59;;;;;;;17.27;6.10;;;12.30;99.90;;;;;;4876987;29;20142;-91
2022/11/07 08:30:25;;;;;;;13.80;6.07;;;12.30;99.90;;;;;;4881127;29;20044;-92
2022/11/07 08:32:52;;;;;;;14.02;5.90;;;12.30;99.90;;;;;;4892935;29;20040;-91
2022/11/07 08:35:18;;;;;;;16.55;6.55;;;12.40;99.90;;;;;;4896329;29;20044;-94
2022/11/07 08:37:43;;;;;;;15.23;6.03;;;12.50;99.90;;;;;;4895556;29;20037;-90
2022/11/07 08:40:10;;;;;;;20.05;6.20;;;12.40;99.90;;;;;;4897984;29;20663;-84
2022/11/07 08:42:35;;;;;;;14.13;5.80;;;12.50;99.90;;;;;;4892985;29;20127;-83
2022/11/07 08:45:01;;;;;;;14.27;5.68;;;12.50;99.90;;;;;;4908782;29;20084;-85
2022/11/07 08:47:27;;;;;;;11.68;5.72;;;12.50;99.90;;;;;;4904503;29;20125;-86
2022/11/07 08:49:53;;;;;;;14.55;5.80;;;12.50;99.90;;;;;;4890747;29;20063;-86
2022/11/07 08:52:18;;;;;;;13.88;5.80;;;12.50;99.90;;;;;;4893489;29;20466;-85
2022/11/07 08:54:44;;;;;;;12.27;5.47;;;12.50;99.90;;;;;;4891936;29;20166;-86
2022/11/07 08:57:10;;;;;;;13.90;5.47;;;12.50;99.90;;;;;;4896332;29;20738;-86
2022/11/07 08:59:36;;;;;;;16.55;5.97;;;12.60;99.90;;;;;;4914292;29;20023;-96
2022/11/07 09:02:05;;;;;;;12.23;5.70;;;12.60;99.90;;;;;;4897815;29;20068;-94
2022/11/07 09:04:33;;;;;;;13.75;5.88;;;12.60;99.90;;;;;;4907283;29;20028;-96
2022/11/07 09:06:59;;;;;;;17.33;5.95;;;12.60;99.90;;;;;;4873931;29;20129;-95
2022/11/07 09:09:24;;;;;;;14.60;5.20;;;12.60;99.90;;;;;;4895898;29;20051;-96
2022/11/07 09:11:50;;;;;;;12.93;5.00;;;12.60;99.90;;;;;;4875442;29;20051;-96
2022/11/07 09:14:16;;;;;;;16.15;5.45;;;12.60;99.90;;;;;;4882118;29;20078;-95
2022/11/07 09:16:42;;;;;;;14.50;6.10;;;12.60;99.90;;;;;;4866608;29;20036;-96
2022/11/07 09:19:08;;;;;;;13.63;5.10;;;12.60;99.90;;;;;;4903041;29;20047;-95
2022/11/07 09:21:33;;;;;;;14.00;5.85;;;12.60;99.90;;;;;;4887250;29;20048;-94
2022/11/07 09:23:59;;;;;;;13.75;5.13;;;12.60;99.90;;;;;;4880118;29;20056;-86
2022/11/07 09:26:24;;;;;;;15.07;5.53;;;12.60;99.90;;;;;;4913081;29;20420;-88
2022/11/07 09:28:50;;;;;;;15.93;5.57;;;12.60;99.90;;;;;;4896007;29;20477;-86
2022/11/07 09:31:15;;;;;;;12.00;5.80;;;12.60;99.90;;;;;;4895524;29;20048;-86
2022/11/07 09:33:41;;;;;;;13.55;5.13;;;12.60;99.90;;;;;;4894565;29;20466;-89
2022/11/07 09:36:07;;;;;;;11.30;5.03;;;12.60;99.90;;;;;;4912971;29;20051;-88
2022/11/07 09:38:33;;;;;;;12.60;5.20;;;12.70;99.90;;;;;;4895705;29;20091;-86
2022/11/07 09:41:01;;;;;;;14.50;5.50;;;12.70;99.90;;;;;;4917681;29;20489;-86
2022/11/07 09:43:53;;;;;;;15.35;5.35;;;12.70;99.90;;;;;;4918354;29;20396;-86
2022/11/07 09:46:35;;;;;;;14.82;5.50;;;12.80;99.90;;;;;;4917580;29;20098;-87
2022/11/07 09:49:13;;;;;;;13.30;5.03;;;12.80;99.90;;;;;;4881913;29;20123;-87
2022/11/07 09:51:43;;;;;;;17.08;5.05;;;12.90;99.90;;;;;;4881828;29;20068;-92
2022/11/07 09:54:20;;;;;;;12.48;4.63;;;12.90;99.90;;;;;;4866079;29;20048;-91
2022/11/07 09:56:46;;;;;;;12.80;5.03;;;13.00;99.90;;;;;;4897240;29;20091;-89
2022/11/07 09:59:36;;;;;;;12.75;4.80;;;13.00;99.90;;;;;;4886366;29;20080;-88
2022/11/07 10:02:10;;;;;;;14.18;5.60;;;13.00;99.90;;;;;;4898924;29;20111;-87
2022/11/07 10:04:36;;;;;;;14.25;5.15;;;13.00;99.90;;;;;;4902379;29;20118;-90
2022/11/07 10:07:20;;;;;;;15.02;5.88;;;13.10;99.90;;;;;;4909049;29;20124;-90
2022/11/07 10:10:02;;;;;;;13.07;6.05;;;13.00;99.90;;;;;;4917784;29;20040;-86
2022/11/07 10:12:57;;;;;;;13.70;5.57;;;13.00;99.90;;;;;;4916027;29;20104;-87
2022/11/07 10:15:44;;;;;;;12.75;5.97;;;13.00;99.90;;;;;;4882068;29;20095;-83
2022/11/07 10:18:12;;;;;;;14.38;5.85;;;12.90;99.90;;;;;;4907892;29;20104;-86
2022/11/07 10:21:12;;;;;;;12.88;5.50;;;13.00;99.90;;;;;;4908333;29;20404;-88
2022/11/07 10:24:21;;;;;;;17.17;6.13;;;13.10;99.90;;;;;;4917077;29;20051;-87
2022/11/07 10:26:47;;;;;;;12.77;5.95;;;13.10;99.90;;;;;;4910247;29;20136;-88
2022/11/07 10:29:18;;;;;;;15.43;5.75;;;13.20;99.90;;;;;;4879222;29;20237;-87
2022/11/07 10:31:55;;;;;;;12.98;5.97;;;13.30;99.90;;;;;;4897881;29;20046;-88
2022/11/07 10:34:36;;;;;;;15.90;5.63;;;13.30;99.90;;;;;;4906115;29;20904;-91
2022/11/07 10:37:03;;;;;;;14.55;5.50;;;13.30;99.90;;;;;;4910452;29;20048;-91
2022/11/07 10:39:30;;;;;;;12.32;5.43;;;13.40;99.90;;;;;;4895727;29;20221;-86
2022/11/07 10:42:08;;;;;;;13.13;5.38;;;13.40;99.90;;;;;;4914454;29;20064;-87
2022/11/07 10:44:34;;;;;;;13.15;4.93;;;13.40;99.90;;;;;;4888272;29;20101;-87
2022/11/07 10:47:04;;;;;;;11.93;5.03;;;13.50;99.90;;;;;;4900325;29;20044;-87
2022/11/07 10:49:31;;;;;;;12.88;5.05;;;13.50;99.90;;;;;;4889599;29;20063;-86
2022/11/07 10:52:08;;;;;;;12.50;4.47;;;13.50;99.90;;;;;;4909840;29;20070;-86
2022/11/07 10:54:34;;;;;;;14.93;5.50;;;13.60;99.90;;;;;;4904160;29;20496;-87
2022/11/07 10:56:59;;;;;;;11.23;4.70;;;13.60;99.90;;;;;;4903197;29;20039;-87
2022/11/07 10:59:27;;;;;;;13.95;5.78;;;13.70;99.90;;;;;;4905056;29;20437;-88
2022/11/07 11:01:55;;;;;;;13.30;4.63;;;13.70;99.90;;;;;;4927814;29;20047;-88
2022/11/07 11:04:23;;;;;;;11.95;4.85;;;13.80;99.90;;;;;;4911748;29;20067;-88
2022/11/07 11:07:03;;;;;;;12.77;5.35;;;13.80;99.90;;;;;;4917862;29;20056;-88
2022/11/07 11:09:31;;;;;;;12.88;5.13;;;13.90;99.90;;;;;;4904103;29;20139;-87
2022/11/07 11:11:57;;;;;;;14.23;4.60;;;13.90;99.90;;;;;;4906193;29;20118;-87
2022/11/07 11:14:23;;;;;;;10.77;4.68;;;14.00;99.90;;;;;;4903384;29;20130;-86
2022/11/07 11:16:54;;;;;;;13.25;4.47;;;14.00;99.90;;;;;;4909491;29;20131;-87
2022/11/07 11:19:29;;;;;;;11.38;4.57;;;14.00;99.90;;;;;;4912762;29;20047;-86
2022/11/07 11:21:57;;;;;;;14.02;4.78;;;14.00;99.90;;;;;;4922368;29;20032;-86
2022/11/07 11:24:28;;;;;;;11.23;4.88;;;14.00;99.90;;;;;;4903512;29;20390;-85
2022/11/07 11:26:58;;;;;;;13.05;4.57;;;14.10;99.90;;;;;;4893150;29;20056;-85
2022/11/07 11:29:44;;;;;;;12.88;4.78;;;14.10;99.90;;;;;;4878859;29;20397;-84
2022/11/07 11:32:37;;;;;;;11.88;4.45;;;14.20;99.90;;;;;;4898571;29;20131;-85
2022/11/07 11:35:39;;;;;;;14.20;4.80;;;14.20;99.90;;;;;;4898485;29;20056;-83
2022/11/07 11:38:07;;;;;;;;;;;14.20;99.90;;;;;;4914371;29;20036;-83
2022/11/07 11:40:37;;;;;;;11.07;4.35;;;14.20;99.90;;;;;;4903742;29;19926;-82
2022/11/07 11:43:17;;;;;;;13.57;4.57;;;14.20;99.90;;;;;;4915383;29;20050;-84
2022/11/07 11:46:01;;;;;;;12.65;4.45;;;14.20;99.90;;;;;;4912560;29;20497;-83
2022/11/07 11:48:37;;;;;;;10.05;4.03;;;14.20;99.90;;;;;;4902989;29;20485;-83
2022/11/07 11:51:08;;;;;;;13.02;4.63;;;14.20;99.90;;;;;;4912216;29;20052;-82
2022/11/07 11:53:33;;;;;;;12.85;4.57;;;14.20;99.90;;;;;;4918542;29;20063;-84
2022/11/07 11:56:05;;;;;;;12.50;4.50;;;14.10;99.90;;;;;;4903102;29;20047;-82
2022/11/07 11:58:55;;;;;;;12.45;4.47;;;14.10;99.90;;;;;;4898360;29;20044;-83
2022/11/07 12:01:44;;;;;;;13.32;4.45;;;14.10;99.90;;;;;;4902078;29;20055;-83
2022/11/07 12:04:35;;;;;;;12.50;4.40;;;14.10;99.90;;;;;;4895466;29;20052;-84
2022/11/07 12:07:38;;;;;;;11.82;4.10;;;14.10;99.90;;;;;;4911684;29;20059;-84
2022/11/07 12:10:35;;;;;;;13.23;5.40;;;14.10;99.90;;;;;;4911153;29;20409;-87
2022/11/07 12:13:25;;;;;;;14.35;5.50;;;14.10;99.90;;;;;;4870102;29;20055;-86
2022/11/07 12:16:18;;;;;;;13.50;5.47;;;14.20;99.90;;;;;;4888818;29;20052;-84
2022/11/07 12:19:17;;;;;;;13.15;5.18;;;14.20;99.90;;;;;;4885365;29;20523;-84
2022/11/07 12:22:02;;;;;;;14.07;5.15;;;14.20;99.90;;;;;;4905055;29;20058;-84
2022/11/07 12:24:30;;;;;;;12.38;4.97;;;14.30;99.90;;;;;;4871012;29;20131;-83
2022/11/07 12:27:12;;;;;;;12.02;5.03;;;14.30;99.90;;;;;;4884553;29;20066;-84
2022/11/07 12:30:01;;;;;;;14.40;5.07;;;14.40;99.90;;;;;;4919388;29;20048;-84
2022/11/07 12:32:39;;;;;;;10.43;4.70;;;14.50;99.90;;;;;;4891840;29;20055;-84
2022/11/07 12:35:29;;;;;;;10.80;4.80;;;14.50;99.90;;;;;;4912393;29;20433;-83
2022/11/07 12:38:20;;;;;;;12.68;5.13;;;14.50;99.90;;;;;;4899514;29;20047;-84
2022/11/07 12:41:04;;;;;;;11.13;4.60;;;14.40;99.90;;;;;;4911134;29;20083;-84
2022/11/07 12:43:47;;;;;;;15.00;4.45;;;14.50;99.90;;;;;;4907697;29;20051;-84
2022/11/07 12:46:13;;;;;;;12.38;4.47;;;14.40;99.90;;;;;;4900805;29;20051;-84
2022/11/07 12:49:26;;;;;;;12.63;4.57;;;14.40;99.90;;;;;;4928738;29;20405;-84
2022/11/07 12:51:57;;;;;;;12.07;4.38;;;14.50;99.90;;;;;;4835557;29;20054;-84
2022/11/07 12:54:46;;;;;;;10.48;4.43;;;14.50;99.90;;;;;;4854263;29;20516;-85
2022/11/07 12:57:24;;;;;;;9.82;4.40;;;14.40;99.90;;;;;;4854427;29;20129;-84
2022/11/07 13:00:00;;;;;;;12.02;4.45;;;14.40;99.90;;;;;;4835554;29;20042;-84
2022/11/07 13:02:53;;;;;;;12.20;4.68;;;14.40;99.90;;;;;;4836151;29;20054;-84
2022/11/07 13:05:51;;;;;;;11.27;4.88;;;14.40;99.90;;;;;;4832328;29;20402;-84
2022/11/07 13:08:41;;;;;;;12.50;4.75;;;14.40;99.90;;;;;;4848960;29;20418;-84
2022/11/07 13:11:12;;;;;;;11.67;4.83;;;14.40;99.90;;;;;;4835664;29;20060;-84
2022/11/07 13:13:48;;;;;;;13.80;5.40;;;14.40;99.90;;;;;;4856241;29;20061;-85
2022/11/07 13:16:32;;;;;;;11.95;5.20;;;14.40;99.90;;;;;;4837109;29;20117;-85
2022/11/07 13:19:19;;;;;;;12.50;5.15;;;14.40;99.90;;;;;;4850820;29;20398;-84
2022/11/07 13:21:45;;;;;;;11.45;5.32;;;14.30;99.90;;;;;;4838339;29;20460;-84
2022/11/07 13:24:23;;;;;;;11.85;5.40;;;14.30;99.90;;;;;;4842118;29;20403;-83
2022/11/07 13:26:49;;;;;;;13.30;5.60;;;14.30;99.90;;;;;;4861510;29;20096;-85
2022/11/07 13:29:35;;;;;;;14.38;5.72;;;14.30;99.90;;;;;;4882469;29;20045;-85
2022/11/07 13:32:14;;;;;;;13.18;5.50;;;14.20;99.90;;;;;;4899361;29;20044;-84
2022/11/07 13:34:48;;;;;;;13.20;5.32;;;14.20;99.90;;;;;;4895625;29;20041;-89
2022/11/07 13:37:21;;;;;;;11.55;5.47;;;14.20;99.90;;;;;;4898956;29;20091;-87